sensor_id;sensor_type;location;lat;lon;timestamp;pressure;altitude;pressure_sealevel;temperature;humidity
22255;BME280;11296;42.684;23.322;2022-11-04T00:01:53;95361.50;;;11.87;100.00
22255;BME280;11296;42.684;23.322;2022-11-04T00:04:24;95367.44;;;11.91;100.00
22255;BME280;11296;42.684;23.322;2022-11-04T00:06:50;95334.00;;;11.54;100.00
22255;BME280;11296;42.684;23.322;2022-11-04T00:09:28;95395.84;;;11.92;100.00
22255;BME280;11296;42.684;23.322;2022-11-04T00:11:55;95332.78;;;11.55;100.00
22255;BME280;11296;42.684;23.322;2022-11-04T00:14:42;95321.38;;;11.45;100.00
22255;BME280;11296;42.684;23.322;2022-11-04T00:17:11;95352.59;;;11.52;100.00
22255;BME280;11296;42.684;23.322;2022-11-04T00:19:51;95342.81;;;11.40;100.00
22255;BME280;11296;42.684;23.322;2022-11-04T00:22:37;95323.78;;;11.29;100.00
22255;BME280;11296;42.684;23.322;2022-11-04T00:25:27;95372.09;;;11.47;100.00
22255;BME280;11296;42.684;23.322;2022-11-04T00:28:17;95304.66;;;11.12;100.00
22255;BME280;11296;42.684;23.322;2022-11-04T00:31:04;95357.59;;;11.44;100.00
22255;BME280;11296;42.684;23.322;2022-11-04T00:33:51;95354.91;;;11.30;100.00
22255;BME280;11296;42.684;23.322;2022-11-04T00:36:17;95336.59;;;11.04;100.00
22255;BME280;11296;42.684;23.322;2022-11-04T00:38:43;95316.69;;;10.87;100.00
22255;BME280;11296;42.684;23.322;2022-11-04T00:41:09;95352.72;;;11.04;100.00
22255;BME280;11296;42.684;23.322;2022-11-04T00:43:58;95337.69;;;10.83;100.00
22255;BME280;11296;42.684;23.322;2022-11-04T00:46:26;95347.34;;;11.04;100.00
22255;BME280;11296;42.684;23.322;2022-11-04T00:48:51;95332.84;;;10.87;100.00
22255;BME280;11296;42.684;23.322;2022-11-04T00:51:17;95344.28;;;10.97;100.00
22255;BME280;11296;42.684;23.322;2022-11-04T00:53:44;95316.34;;;10.94;100.00
22255;BME280;11296;42.684;23.322;2022-11-04T00:56:10;95337.53;;;11.01;100.00
22255;BME280;11296;42.684;23.322;2022-11-04T00:58:35;95322.28;;;10.98;100.00
22255;BME280;11296;42.684;23.322;2022-11-04T01:01:07;95353.22;;;11.17;100.00
22255;BME280;11296;42.684;23.322;2022-11-04T01:03:33;95340.09;;;10.96;100.00
22255;BME280;11296;42.684;23.322;2022-11-04T01:05:59;95306.66;;;10.73;100.00
22255;BME280;11296;42.684;23.322;2022-11-04T01:08:24;95319.88;;;10.86;100.00
22255;BME280;11296;42.684;23.322;2022-11-04T01:10:50;95326.25;;;10.88;100.00
22255;BME280;11296;42.684;23.322;2022-11-04T01:13:16;95310.16;;;10.65;100.00
22255;BME280;11296;42.684;23.322;2022-11-04T01:15:41;95278.22;;;10.43;100.00
22255;BME280;11296;42.684;23.322;2022-11-04T01:18:07;95329.31;;;10.81;100.00
22255;BME280;11296;42.684;23.322;2022-11-04T01:20:33;95322.44;;;10.80;100.00
22255;BME280;11296;42.684;23.322;2022-11-04T01:22:58;95284.44;;;10.49;100.00
22255;BME280;11296;42.684;23.322;2022-11-04T01:25:24;95320.97;;;10.79;100.00
22255;BME280;11296;42.684;23.322;2022-11-04T01:27:50;95320.50;;;10.81;100.00
22255;BME280;11296;42.684;23.322;2022-11-04T01:30:15;95292.72;;;10.60;100.00
22255;BME280;11296;42.684;23.322;2022-11-04T01:32:41;95293.47;;;10.61;100.00
22255;BME280;11296;42.684;23.322;2022-11-04T01:35:07;95302.38;;;10.67;100.00
22255;BME280;11296;42.684;23.322;2022-11-04T01:37:36;95306.81;;;10.55;100.00
22255;BME280;11296;42.684;23.322;2022-11-04T01:40:02;95285.94;;;10.50;100.00
22255;BME280;11296;42.684;23.322;2022-11-04T01:42:28;95291.66;;;10.43;100.00
22255;BME280;11296;42.684;23.322;2022-11-04T01:44:56;95313.09;;;10.52;100.00
22255;BME280;11296;42.684;23.322;2022-11-04T01:47:34;95330.94;;;10.64;100.00
22255;BME280;11296;42.684;23.322;2022-11-04T01:50:08;95338.22;;;10.73;100.00
22255;BME280;11296;42.684;23.322;2022-11-04T01:52:44;95315.16;;;10.57;100.00
22255;BME280;11296;42.684;23.322;2022-11-04T01:55:18;95308.34;;;10.47;100.00
22255;BME280;11296;42.684;23.322;2022-11-04T01:57:47;95286.91;;;10.38;100.00
22255;BME280;11296;42.684;23.322;2022-11-04T02:00:14;95309.72;;;10.42;100.00
22255;BME280;11296;42.684;23.322;2022-11-04T02:02:56;95285.00;;;10.15;100.00
22255;BME280;11296;42.684;23.322;2022-11-04T02:05:23;95250.75;;;9.92;100.00
22255;BME280;11296;42.684;23.322;2022-11-04T02:07:52;95252.31;;;9.84;100.00
22255;BME280;11296;42.684;23.322;2022-11-04T02:10:21;95271.56;;;10.06;100.00
22255;BME280;11296;42.684;23.322;2022-11-04T02:12:49;95272.47;;;10.03;100.00
22255;BME280;11296;42.684;23.322;2022-11-04T02:15:18;95279.34;;;10.04;100.00
22255;BME280;11296;42.684;23.322;2022-11-04T02:31:51;95304.31;;;10.28;100.00
22255;BME280;11296;42.684;23.322;2022-11-04T02:45:17;95257.38;;;9.82;100.00
22255;BME280;11296;42.684;23.322;2022-11-04T02:50:58;95257.19;;;9.61;100.00
22255;BME280;11296;42.684;23.322;2022-11-04T02:53:32;95297.19;;;9.92;100.00
22255;BME280;11296;42.684;23.322;2022-11-04T02:56:03;95262.53;;;9.70;100.00
22255;BME280;11296;42.684;23.322;2022-11-04T02:58:41;95285.16;;;9.79;100.00
22255;BME280;11296;42.684;23.322;2022-11-04T03:01:12;95261.38;;;9.62;100.00
22255;BME280;11296;42.684;23.322;2022-11-04T03:03:45;95259.25;;;9.66;100.00
22255;BME280;11296;42.684;23.322;2022-11-04T03:06:14;95272.38;;;9.74;100.00
22255;BME280;11296;42.684;23.322;2022-11-04T03:08:47;95227.16;;;9.39;100.00
22255;BME280;11296;42.684;23.322;2022-11-04T03:11:16;95283.41;;;9.76;100.00
22255;BME280;11296;42.684;23.322;2022-11-04T03:16:16;95250.38;;;9.51;100.00
22255;BME280;11296;42.684;23.322;2022-11-04T03:19:03;95288.78;;;9.76;100.00
22255;BME280;11296;42.684;23.322;2022-11-04T03:21:33;95311.16;;;9.73;100.00
22255;BME280;11296;42.684;23.322;2022-11-04T03:24:00;95238.72;;;9.22;100.00
22255;BME280;11296;42.684;23.322;2022-11-04T03:27:11;95305.69;;;9.67;100.00
22255;BME280;11296;42.684;23.322;2022-11-04T03:29:47;95266.25;;;9.40;100.00
22255;BME280;11296;42.684;23.322;2022-11-04T03:35:05;95253.94;;;9.25;100.00
22255;BME280;11296;42.684;23.322;2022-11-04T03:37:32;95264.75;;;9.39;100.00
22255;BME280;11296;42.684;23.322;2022-11-04T03:39:58;95245.16;;;9.15;100.00
22255;BME280;11296;42.684;23.322;2022-11-04T03:42:25;95270.72;;;9.34;100.00
22255;BME280;11296;42.684;23.322;2022-11-04T03:44:53;95248.28;;;9.23;100.00
22255;BME280;11296;42.684;23.322;2022-11-04T03:47:23;95271.94;;;9.33;100.00
22255;BME280;11296;42.684;23.322;2022-11-04T03:49:52;95303.91;;;9.55;100.00
22255;BME280;11296;42.684;23.322;2022-11-04T03:52:20;95274.34;;;9.31;100.00
22255;BME280;11296;42.684;23.322;2022-11-04T03:54:46;95257.22;;;9.20;100.00
22255;BME280;11296;42.684;23.322;2022-11-04T04:05:51;95269.84;;;9.28;100.00
22255;BME280;11296;42.684;23.322;2022-11-04T04:08:37;95243.53;;;9.09;100.00
22255;BME280;11296;42.684;23.322;2022-11-04T04:11:32;95252.91;;;9.13;100.00
22255;BME280;11296;42.684;23.322;2022-11-04T04:14:18;95263.63;;;9.22;100.00
22255;BME280;11296;42.684;23.322;2022-11-04T04:20:19;95251.59;;;9.00;100.00
22255;BME280;11296;42.684;23.322;2022-11-04T04:22:53;95278.41;;;9.09;100.00
22255;BME280;11296;42.684;23.322;2022-11-04T04:25:22;95240.91;;;8.81;100.00
22255;BME280;11296;42.684;23.322;2022-11-04T04:28:11;95235.72;;;8.69;100.00
22255;BME280;11296;42.684;23.322;2022-11-04T04:30:41;95292.59;;;9.00;100.00
22255;BME280;11296;42.684;23.322;2022-11-04T04:33:10;95239.00;;;8.73;100.00
22255;BME280;11296;42.684;23.322;2022-11-04T04:35:44;95243.19;;;8.74;100.00
22255;BME280;11296;42.684;23.322;2022-11-04T04:38:32;95284.84;;;9.02;100.00
22255;BME280;11296;42.684;23.322;2022-11-04T04:41:20;95256.13;;;8.75;100.00
22255;BME280;11296;42.684;23.322;2022-11-04T04:44:32;95227.13;;;8.47;100.00
22255;BME280;11296;42.684;23.322;2022-11-04T04:47:18;95259.28;;;8.74;100.00
22255;BME280;11296;42.684;23.322;2022-11-04T04:49:56;95237.53;;;8.54;100.00
22255;BME280;11296;42.684;23.322;2022-11-04T04:52:29;95230.25;;;8.63;100.00
22255;BME280;11296;42.684;23.322;2022-11-04T04:54:55;95249.16;;;8.60;100.00
22255;BME280;11296;42.684;23.322;2022-11-04T04:57:21;95227.13;;;8.56;100.00
22255;BME280;11296;42.684;23.322;2022-11-04T04:59:47;95244.53;;;8.60;100.00
22255;BME280;11296;42.684;23.322;2022-11-04T05:02:12;95268.78;;;8.75;100.00
22255;BME280;11296;42.684;23.322;2022-11-04T05:04:38;95247.34;;;8.66;100.00
22255;BME280;11296;42.684;23.322;2022-11-04T05:07:04;95256.59;;;8.65;100.00
22255;BME280;11296;42.684;23.322;2022-11-04T05:09:31;95248.09;;;8.66;100.00
22255;BME280;11296;42.684;23.322;2022-11-04T05:11:57;95269.53;;;8.75;100.00
22255;BME280;11296;42.684;23.322;2022-11-04T05:14:25;95259.13;;;8.68;100.00
22255;BME280;11296;42.684;23.322;2022-11-04T05:16:51;95252.13;;;8.71;100.00
22255;BME280;11296;42.684;23.322;2022-11-04T05:19:16;95257.47;;;8.71;100.00
22255;BME280;11296;42.684;23.322;2022-11-04T05:21:44;95297.22;;;9.00;100.00
22255;BME280;11296;42.684;23.322;2022-11-04T05:24:10;95254.22;;;8.67;100.00
22255;BME280;11296;42.684;23.322;2022-11-04T05:26:36;95264.63;;;8.83;100.00
22255;BME280;11296;42.684;23.322;2022-11-04T05:29:02;95271.16;;;8.91;100.00
22255;BME280;11296;42.684;23.322;2022-11-04T05:31:28;95233.63;;;8.73;100.00
22255;BME280;11296;42.684;23.322;2022-11-04T05:33:55;95251.78;;;8.87;100.00
22255;BME280;11296;42.684;23.322;2022-11-04T05:36:21;95282.63;;;9.01;100.00
22255;BME280;11296;42.684;23.322;2022-11-04T05:38:50;95280.25;;;8.93;100.00
22255;BME280;11296;42.684;23.322;2022-11-04T05:41:18;95275.75;;;9.00;100.00
22255;BME280;11296;42.684;23.322;2022-11-04T05:44:02;95278.28;;;9.03;100.00
22255;BME280;11296;42.684;23.322;2022-11-04T05:46:30;95283.47;;;9.16;100.00
22255;BME280;11296;42.684;23.322;2022-11-04T05:48:55;95272.84;;;9.21;100.00
22255;BME280;11296;42.684;23.322;2022-11-04T05:51:25;95277.34;;;9.15;100.00
22255;BME280;11296;42.684;23.322;2022-11-04T05:53:50;95289.50;;;9.34;100.00
22255;BME280;11296;42.684;23.322;2022-11-04T05:56:16;95260.34;;;9.27;100.00
22255;BME280;11296;42.684;23.322;2022-11-04T05:58:42;95291.09;;;9.50;100.00
22255;BME280;11296;42.684;23.322;2022-11-04T06:03:49;95286.03;;;9.52;100.00
22255;BME280;11296;42.684;23.322;2022-11-04T06:06:15;95295.06;;;9.63;100.00
22255;BME280;11296;42.684;23.322;2022-11-04T06:08:41;95265.75;;;9.51;100.00
22255;BME280;11296;42.684;23.322;2022-11-04T06:11:06;95301.13;;;9.82;100.00
22255;BME280;11296;42.684;23.322;2022-11-04T06:13:32;95309.13;;;9.91;100.00
22255;BME280;11296;42.684;23.322;2022-11-04T06:15:58;95311.28;;;10.11;100.00
22255;BME280;11296;42.684;23.322;2022-11-04T06:18:23;95263.94;;;9.81;100.00
22255;BME280;11296;42.684;23.322;2022-11-04T06:20:49;95305.00;;;10.14;100.00
22255;BME280;11296;42.684;23.322;2022-11-04T06:23:15;95288.59;;;10.03;100.00
22255;BME280;11296;42.684;23.322;2022-11-04T06:25:40;95318.50;;;10.28;100.00
22255;BME280;11296;42.684;23.322;2022-11-04T06:28:06;95286.69;;;10.27;100.00
22255;BME280;11296;42.684;23.322;2022-11-04T06:30:31;95287.44;;;10.27;100.00
22255;BME280;11296;42.684;23.322;2022-11-04T06:32:57;95284.78;;;10.42;100.00
22255;BME280;11296;42.684;23.322;2022-11-04T06:35:23;95317.88;;;10.72;100.00
22255;BME280;11296;42.684;23.322;2022-11-04T06:37:48;95307.88;;;10.72;100.00
22255;BME280;11296;42.684;23.322;2022-11-04T06:40:14;95322.44;;;10.80;100.00
22255;BME280;11296;42.684;23.322;2022-11-04T06:42:40;95316.97;;;10.89;100.00
22255;BME280;11296;42.684;23.322;2022-11-04T06:45:07;95324.88;;;10.93;100.00
22255;BME280;11296;42.684;23.322;2022-11-04T06:47:33;95322.56;;;11.00;100.00
22255;BME280;11296;42.684;23.322;2022-11-04T06:49:58;95294.53;;;10.92;100.00
22255;BME280;11296;42.684;23.322;2022-11-04T06:52:24;95310.59;;;11.16;100.00
22255;BME280;11296;42.684;23.322;2022-11-04T06:54:50;95311.16;;;11.35;100.00
22255;BME280;11296;42.684;23.322;2022-11-04T06:57:15;95267.41;;;11.10;100.00
22255;BME280;11296;42.684;23.322;2022-11-04T06:59:41;95290.66;;;11.23;100.00
22255;BME280;11296;42.684;23.322;2022-11-04T07:02:09;95326.41;;;11.67;100.00
22255;BME280;11296;42.684;23.322;2022-11-04T07:04:36;95294.34;;;11.54;100.00
22255;BME280;11296;42.684;23.322;2022-11-04T07:07:01;95305.38;;;11.71;100.00
22255;BME280;11296;42.684;23.322;2022-11-04T07:09:32;95292.94;;;11.73;100.00
22255;BME280;11296;42.684;23.322;2022-11-04T07:11:59;95299.13;;;11.79;100.00
22255;BME280;11296;42.684;23.322;2022-11-04T07:14:25;95299.94;;;11.85;100.00
22255;BME280;11296;42.684;23.322;2022-11-04T07:16:51;95284.69;;;11.97;100.00
22255;BME280;11296;42.684;23.322;2022-11-04T07:19:17;95295.22;;;12.15;100.00
22255;BME280;11296;42.684;23.322;2022-11-04T07:21:43;95304.94;;;12.47;100.00
22255;BME280;11296;42.684;23.322;2022-11-04T07:24:09;95260.03;;;12.04;100.00
22255;BME280;11296;42.684;23.322;2022-11-04T07:26:34;95286.19;;;12.38;100.00
22255;BME280;11296;42.684;23.322;2022-11-04T07:29:00;95296.03;;;12.41;100.00
22255;BME280;11296;42.684;23.322;2022-11-04T07:31:26;95304.66;;;12.65;100.00
22255;BME280;11296;42.684;23.322;2022-11-04T07:33:52;95294.38;;;12.70;100.00
22255;BME280;11296;42.684;23.322;2022-11-04T07:36:19;95245.13;;;12.29;100.00
22255;BME280;11296;42.684;23.322;2022-11-04T07:38:45;95262.84;;;12.55;100.00
22255;BME280;11296;42.684;23.322;2022-11-04T07:41:12;95271.44;;;12.80;100.00
22255;BME280;11296;42.684;23.322;2022-11-04T07:43:38;95262.03;;;12.95;100.00
22255;BME280;11296;42.684;23.322;2022-11-04T07:46:06;95247.06;;;13.00;100.00
22255;BME280;11296;42.684;23.322;2022-11-04T07:48:34;95256.28;;;13.08;100.00
22255;BME280;11296;42.684;23.322;2022-11-04T07:51:00;95253.16;;;13.15;100.00
22255;BME280;11296;42.684;23.322;2022-11-04T07:53:27;95242.78;;;13.08;100.00
22255;BME280;11296;42.684;23.322;2022-11-04T07:55:53;95240.00;;;13.28;100.00
22255;BME280;11296;42.684;23.322;2022-11-04T07:58:22;95234.78;;;13.24;100.00
22255;BME280;11296;42.684;23.322;2022-11-04T08:00:48;95281.22;;;13.54;100.00
22255;BME280;11296;42.684;23.322;2022-11-04T08:03:14;95213.84;;;13.14;100.00
22255;BME280;11296;42.684;23.322;2022-11-04T08:05:40;95245.75;;;13.47;100.00
22255;BME280;11296;42.684;23.322;2022-11-04T08:08:06;95226.38;;;13.48;100.00
22255;BME280;11296;42.684;23.322;2022-11-04T08:10:32;95247.69;;;13.77;100.00
22255;BME280;11296;42.684;23.322;2022-11-04T08:12:58;95243.72;;;13.73;100.00
22255;BME280;11296;42.684;23.322;2022-11-04T08:15:23;95220.16;;;13.73;100.00
22255;BME280;11296;42.684;23.322;2022-11-04T08:17:49;95227.03;;;13.74;100.00
22255;BME280;11296;42.684;23.322;2022-11-04T08:20:15;95250.75;;;13.96;100.00
22255;BME280;11296;42.684;23.322;2022-11-04T08:22:40;95216.53;;;13.87;100.00
22255;BME280;11296;42.684;23.322;2022-11-04T08:25:09;95233.63;;;14.16;100.00
22255;BME280;11296;42.684;23.322;2022-11-04T08:27:37;95216.91;;;14.17;100.00
22255;BME280;11296;42.684;23.322;2022-11-04T08:30:03;95245.63;;;14.51;100.00
22255;BME280;11296;42.684;23.322;2022-11-04T08:32:29;95198.06;;;14.39;100.00
22255;BME280;11296;42.684;23.322;2022-11-04T08:34:55;95209.16;;;14.36;100.00
22255;BME280;11296;42.684;23.322;2022-11-04T08:37:20;95212.16;;;14.60;100.00
22255;BME280;11296;42.684;23.322;2022-11-04T08:39:46;95198.44;;;14.91;100.00
22255;BME280;11296;42.684;23.322;2022-11-04T08:42:12;95204.34;;;15.39;100.00
22255;BME280;11296;42.684;23.322;2022-11-04T08:44:37;95207.00;;;16.47;100.00
22255;BME280;11296;42.684;23.322;2022-11-04T08:47:04;95190.13;;;18.32;100.00
22255;BME280;11296;42.684;23.322;2022-11-04T08:49:29;95187.44;;;19.33;100.00
22255;BME280;11296;42.684;23.322;2022-11-04T08:51:55;95161.28;;;20.81;90.44
22255;BME280;11296;42.684;23.322;2022-11-04T08:54:25;95159.72;;;21.76;81.42
22255;BME280;11296;42.684;23.322;2022-11-04T08:56:51;95189.31;;;22.84;73.84
22255;BME280;11296;42.684;23.322;2022-11-04T08:59:16;95172.91;;;23.07;68.76
22255;BME280;11296;42.684;23.322;2022-11-04T09:01:43;95182.81;;;24.08;62.89
22255;BME280;11296;42.684;23.322;2022-11-04T09:04:11;95187.22;;;24.66;60.58
22255;BME280;11296;42.684;23.322;2022-11-04T09:06:40;95143.84;;;24.50;59.30
22255;BME280;11296;42.684;23.322;2022-11-04T09:09:08;95137.53;;;24.17;57.66
22255;BME280;11296;42.684;23.322;2022-11-04T09:11:40;95157.19;;;24.53;57.40
22255;BME280;11296;42.684;23.322;2022-11-04T09:14:06;95136.84;;;24.96;55.54
22255;BME280;11296;42.684;23.322;2022-11-04T09:16:33;95158.34;;;25.15;54.87
22255;BME280;11296;42.684;23.322;2022-11-04T09:18:59;95144.28;;;24.78;54.45
22255;BME280;11296;42.684;23.322;2022-11-04T09:21:26;95145.84;;;25.21;53.89
22255;BME280;11296;42.684;23.322;2022-11-04T09:23:52;95131.84;;;25.51;51.52
22255;BME280;11296;42.684;23.322;2022-11-04T09:26:19;95119.59;;;25.45;51.54
22255;BME280;11296;42.684;23.322;2022-11-04T09:28:45;95124.09;;;25.57;51.50
22255;BME280;11296;42.684;23.322;2022-11-04T09:31:14;95125.56;;;25.75;50.84
22255;BME280;11296;42.684;23.322;2022-11-04T09:33:40;95137.94;;;26.26;49.95
22255;BME280;11296;42.684;23.322;2022-11-04T09:36:06;95109.38;;;25.80;49.58
22255;BME280;11296;42.684;23.322;2022-11-04T09:38:34;95113.69;;;25.24;50.42
22255;BME280;11296;42.684;23.322;2022-11-04T09:41:00;95090.53;;;24.77;51.16
22255;BME280;11296;42.684;23.322;2022-11-04T09:43:57;95086.81;;;23.95;53.00
22255;BME280;11296;42.684;23.322;2022-11-04T09:46:31;95103.81;;;25.45;50.67
22255;BME280;11296;42.684;23.322;2022-11-04T09:49:00;95081.56;;;25.26;49.45
22255;BME280;11296;42.684;23.322;2022-11-04T09:51:27;95106.16;;;25.24;53.42
22255;BME280;11296;42.684;23.322;2022-11-04T09:54:02;95083.25;;;25.81;49.57
22255;BME280;11296;42.684;23.322;2022-11-04T09:56:36;95095.25;;;26.27;48.13
22255;BME280;11296;42.684;23.322;2022-11-04T09:59:03;95070.03;;;26.74;46.27
22255;BME280;11296;42.684;23.322;2022-11-04T10:01:45;95100.19;;;26.99;44.44
22255;BME280;11296;42.684;23.322;2022-11-04T10:04:38;95059.06;;;27.39;43.34
22255;BME280;11296;42.684;23.322;2022-11-04T10:18:05;95072.13;;;26.66;44.59
22255;BME280;11296;42.684;23.322;2022-11-04T10:28:57;95014.00;;;27.37;44.11
22255;BME280;11296;42.684;23.322;2022-11-04T10:31:25;95018.66;;;27.44;43.11
22255;BME280;11296;42.684;23.322;2022-11-04T10:33:54;95036.25;;;25.61;45.23
22255;BME280;11296;42.684;23.322;2022-11-04T10:36:22;95006.97;;;23.46;48.92
22255;BME280;11296;42.684;23.322;2022-11-04T10:38:53;95002.81;;;23.77;48.81
22255;BME280;11296;42.684;23.322;2022-11-04T10:44:23;94976.75;;;25.93;45.13
22255;BME280;11296;42.684;23.322;2022-11-04T10:52:37;94960.75;;;28.03;39.90
22255;BME280;11296;42.684;23.322;2022-11-04T10:57:56;94941.81;;;28.09;39.08
22255;BME280;11296;42.684;23.322;2022-11-04T11:00:39;94955.66;;;27.90;39.63
22255;BME280;11296;42.684;23.322;2022-11-04T11:03:28;94976.63;;;27.93;39.42
22255;BME280;11296;42.684;23.322;2022-11-04T11:06:09;94954.22;;;27.99;38.40
22255;BME280;11296;42.684;23.322;2022-11-04T11:08:36;94933.84;;;28.13;38.82
22255;BME280;11296;42.684;23.322;2022-11-04T11:11:04;94902.19;;;27.18;38.78
22255;BME280;11296;42.684;23.322;2022-11-04T11:13:39;94921.44;;;28.54;37.55
22255;BME280;11296;42.684;23.322;2022-11-04T11:16:16;94950.09;;;28.19;37.50
22255;BME280;11296;42.684;23.322;2022-11-04T11:18:42;94916.00;;;27.66;38.50
22255;BME280;11296;42.684;23.322;2022-11-04T11:21:14;94942.88;;;27.85;39.04
22255;BME280;11296;42.684;23.322;2022-11-04T11:23:47;94906.59;;;28.19;37.86
22255;BME280;11296;42.684;23.322;2022-11-04T11:26:21;94932.31;;;28.93;37.06
22255;BME280;11296;42.684;23.322;2022-11-04T11:28:56;94899.84;;;28.22;37.26
22255;BME280;11296;42.684;23.322;2022-11-04T11:31:39;94899.94;;;28.43;37.05
22255;BME280;11296;42.684;23.322;2022-11-04T11:34:30;94908.84;;;29.78;35.29
22255;BME280;11296;42.684;23.322;2022-11-04T11:36:57;94879.78;;;28.83;36.23
22255;BME280;11296;42.684;23.322;2022-11-04T11:39:27;94853.91;;;27.39;38.05
22255;BME280;11296;42.684;23.322;2022-11-04T11:41:58;94897.63;;;29.76;35.78
22255;BME280;11296;42.684;23.322;2022-11-04T11:44:41;94865.50;;;30.29;34.34
22255;BME280;11296;42.684;23.322;2022-11-04T11:52:39;94861.72;;;26.75;39.40
22255;BME280;11296;42.684;23.322;2022-11-04T11:55:20;94855.97;;;26.08;39.94
22255;BME280;11296;42.684;23.322;2022-11-04T12:00:57;94839.56;;;24.62;42.79
22255;BME280;11296;42.684;23.322;2022-11-04T12:03:33;94886.91;;;24.60;44.14
22255;BME280;11296;42.684;23.322;2022-11-04T12:06:25;94826.94;;;23.92;44.08
22255;BME280;11296;42.684;23.322;2022-11-04T12:09:11;94868.31;;;23.94;45.33
22255;BME280;11296;42.684;23.322;2022-11-04T12:12:13;94833.94;;;23.14;47.25
22255;BME280;11296;42.684;23.322;2022-11-04T12:15:07;94859.09;;;23.42;47.98
22255;BME280;11296;42.684;23.322;2022-11-04T12:17:51;94846.22;;;23.05;48.54
22255;BME280;11296;42.684;23.322;2022-11-04T12:23:25;94858.16;;;22.93;49.40
22255;BME280;11296;42.684;23.322;2022-11-04T12:29:06;94849.03;;;24.68;45.73
22255;BME280;11296;42.684;23.322;2022-11-04T12:31:50;94798.16;;;22.97;47.26
22255;BME280;11296;42.684;23.322;2022-11-04T12:40:21;94814.19;;;22.07;50.18
22255;BME280;11296;42.684;23.322;2022-11-04T12:45:47;94847.06;;;22.00;51.38
22255;BME280;11296;42.684;23.322;2022-11-04T12:51:16;94833.28;;;21.55;53.81
22255;BME280;11296;42.684;23.322;2022-11-04T12:57:17;94785.13;;;21.67;54.59
22255;BME280;11296;42.684;23.322;2022-11-04T13:00:04;94843.94;;;21.81;55.19
22255;BME280;11296;42.684;23.322;2022-11-04T13:02:37;94783.38;;;21.03;57.45
22255;BME280;11296;42.684;23.322;2022-11-04T13:11:07;94833.28;;;21.55;59.10
22255;BME280;11296;42.684;23.322;2022-11-04T13:14:12;94776.22;;;21.00;60.23
22255;BME280;11296;42.684;23.322;2022-11-04T13:16:41;94798.50;;;21.04;60.50
22255;BME280;11296;42.684;23.322;2022-11-04T13:21:50;94810.34;;;20.71;63.71
22255;BME280;11296;42.684;23.322;2022-11-04T13:24:53;94790.19;;;20.46;64.65
22255;BME280;11296;42.684;23.322;2022-11-04T13:27:31;94807.16;;;20.24;68.51
22255;BME280;11296;42.684;23.322;2022-11-04T13:30:15;94794.75;;;20.23;69.72
22255;BME280;11296;42.684;23.322;2022-11-04T13:38:26;94799.44;;;20.43;70.46
22255;BME280;11296;42.684;23.322;2022-11-04T13:43:56;94780.63;;;20.67;69.28
22255;BME280;11296;42.684;23.322;2022-11-04T13:46:28;94785.75;;;20.35;71.51
22255;BME280;11296;42.684;23.322;2022-11-04T13:49:04;94754.03;;;20.32;71.35
22255;BME280;11296;42.684;23.322;2022-11-04T13:51:40;94786.09;;;20.32;71.44
22255;BME280;11296;42.684;23.322;2022-11-04T13:54:51;94815.81;;;20.35;74.21
22255;BME280;11296;42.684;23.322;2022-11-04T13:57:20;94750.38;;;19.81;75.24
22255;BME280;11296;42.684;23.322;2022-11-04T14:00:18;94764.50;;;19.72;76.40
22255;BME280;11296;42.684;23.322;2022-11-04T14:02:58;94780.84;;;19.64;77.94
22255;BME280;11296;42.684;23.322;2022-11-04T14:18:52;94767.78;;;21.49;65.68
22255;BME280;11296;42.684;23.322;2022-11-04T14:21:20;94777.50;;;22.03;64.25
22255;BME280;11296;42.684;23.322;2022-11-04T14:23:58;94788.47;;;22.03;64.92
22255;BME280;11296;42.684;23.322;2022-11-04T14:26:40;94808.50;;;21.60;66.49
22255;BME280;11296;42.684;23.322;2022-11-04T14:29:16;94779.94;;;21.10;66.23
22255;BME280;11296;42.684;23.322;2022-11-04T14:31:49;94815.59;;;20.97;68.40
22255;BME280;11296;42.684;23.322;2022-11-04T14:34:26;94831.56;;;20.50;71.72
22255;BME280;11296;42.684;23.322;2022-11-04T14:36:57;94772.50;;;19.90;74.19
22255;BME280;11296;42.684;23.322;2022-11-04T14:39:29;94797.06;;;19.90;75.01
22255;BME280;11296;42.684;23.322;2022-11-04T14:42:02;94766.06;;;19.26;78.37
22255;BME280;11296;42.684;23.322;2022-11-04T14:44:43;94778.91;;;19.18;81.77
22255;BME280;11296;42.684;23.322;2022-11-04T14:47:28;94785.47;;;18.89;84.03
22255;BME280;11296;42.684;23.322;2022-11-04T14:52:53;94757.69;;;18.17;92.20
22255;BME280;11296;42.684;23.322;2022-11-04T14:55:30;94808.78;;;18.50;93.55
22255;BME280;11296;42.684;23.322;2022-11-04T14:58:25;94745.63;;;18.13;95.72
22255;BME280;11296;42.684;23.322;2022-11-04T15:01:00;94787.50;;;18.23;97.45
22255;BME280;11296;42.684;23.322;2022-11-04T15:03:36;94723.81;;;17.73;98.89
22255;BME280;11296;42.684;23.322;2022-11-04T15:06:05;94786.41;;;17.87;100.00
22255;BME280;11296;42.684;23.322;2022-11-04T15:13:37;94737.47;;;17.23;100.00
22255;BME280;11296;42.684;23.322;2022-11-04T15:16:09;94754.47;;;17.11;100.00
22255;BME280;11296;42.684;23.322;2022-11-04T15:18:38;94762.25;;;17.20;100.00
22255;BME280;11296;42.684;23.322;2022-11-04T15:21:06;94784.75;;;17.01;100.00
22255;BME280;11296;42.684;23.322;2022-11-04T15:23:50;94753.72;;;16.78;100.00
22255;BME280;11296;42.684;23.322;2022-11-04T15:26:27;94773.59;;;16.86;100.00
22255;BME280;11296;42.684;23.322;2022-11-04T15:28:54;94751.78;;;16.55;100.00
22255;BME280;11296;42.684;23.322;2022-11-04T15:31:30;94799.16;;;16.78;100.00
22255;BME280;11296;42.684;23.322;2022-11-04T15:33:58;94791.19;;;16.61;100.00
22255;BME280;11296;42.684;23.322;2022-11-04T15:36:30;94763.41;;;16.31;100.00